Time;durP1;ratioP1;P1;durP2;ratioP2;P2;SDS_P1;SDS_P2;PMS_P1;PMS_P2;Temp;Humidity;BMP_temperature;BMP_pressure;BME280_temperature;BME280_humidity;BME280_pressure;Samples;Min_cycle;Max_cycle;Signal;HPM_P1;HPM_P2
2021/09/09 06:22:32;;;;;;;28.35;13.95;;;;;;;14.03;67.49;101024.52;1682948;83;21080;-37
2021/09/09 06:26:27;;;;;;;29.23;11.53;;;;;;;14.23;66.55;101020.09;1601667;87;21046;-37
2021/09/09 06:29:38;;;;;;;28.90;12.05;;;;;;;14.54;65.60;101014.72;1611803;86;21155;-37
2021/09/09 06:33:11;;;;;;;17.32;9.83;;;;;;;14.83;64.50;101015.88;1613264;84;21128;-39
2021/09/09 06:43:24;;;;;;;19.05;8.75;;;;;;;15.58;61.30;101015.30;1544414;90;21924;-40
2021/09/09 06:49:56;;;;;;;20.68;9.15;;;;;;;16.08;59.79;101020.11;1476417;92;21604;-37
2021/09/09 06:52:56;;;;;;;28.65;9.35;;;;;;;16.34;59.32;101014.52;1499727;94;21333;-39
2021/09/09 06:55:25;;;;;;;12.95;7.58;;;;;;;16.57;58.85;101016.86;1469634;95;21158;-39
2021/09/09 06:58:03;;;;;;;14.00;7.85;;;;;;;16.78;58.72;101017.52;1509818;93;21355;-38
2021/09/09 07:04:31;;;;;;;14.70;6.85;;;;;;;17.14;57.16;101018.73;1469580;95;21318;-37
2021/09/09 07:07:06;;;;;;;19.00;5.90;;;;;;;17.40;56.49;101022.30;1512161;91;21686;-38
2021/09/09 07:30:16;;;;;;;9.93;4.12;;;;;;;19.11;47.17;101007.82;1607833;85;21055;-39
2021/09/09 07:33:21;;;;;;;10.30;4.15;;;;;;;19.30;46.82;101006.04;1581662;84;21657;-38
2021/09/09 07:39:44;;;;;;;11.70;4.35;;;;;;;19.66;45.37;101005.16;1570997;88;21139;-40
2021/09/09 07:42:47;;;;;;;11.65;4.03;;;;;;;19.81;44.78;100997.22;1580038;88;21068;-37
2021/09/09 07:48:07;;;;;;;9.73;4.45;;;;;;;20.15;44.42;101004.27;1641251;83;21089;-39
2021/09/09 07:50:54;;;;;;;19.55;6.25;;;;;;;20.30;43.79;100998.98;1639313;84;21491;-39
2021/09/09 07:53:27;;;;;;;8.13;4.58;;;;;;;20.41;43.89;100997.75;1626204;84;21169;-39
2021/09/09 07:56:26;;;;;;;11.88;4.08;;;;;;;20.55;42.81;100994.70;1615826;86;21113;-39
2021/09/09 08:31:00;;;;;;;7.20;4.35;;;;;;;21.60;40.79;100970.47;1683239;82;21296;-39
2021/09/09 08:38:32;;;;;;;12.80;6.05;;;;;;;21.84;40.23;100971.86;1678848;82;21084;-37
2021/09/09 08:41:29;;;;;;;9.00;5.67;;;;;;;21.85;40.24;100964.27;1620490;85;21035;-40
2021/09/09 08:44:35;;;;;;;7.65;5.42;;;;;;;21.91;39.73;100956.05;1661391;83;21053;-40
2021/09/09 08:58:46;;;;;;;13.68;5.12;;;;;;;22.25;39.27;100947.70;1649446;84;21107;-39
2021/09/09 09:02:15;;;;;;;12.65;5.47;;;;;;;22.36;39.26;100945.97;1626561;83;21542;-37
2021/09/09 09:09:19;;;;;;;14.40;6.12;;;;;;;22.52;38.83;100943.13;1636571;84;21095;-41
2021/09/09 09:13:16;;;;;;;14.80;6.20;;;;;;;22.68;39.53;100939.39;1638571;83;21872;-37
2021/09/09 09:23:31;;;;;;;12.50;7.25;;;;;;;22.87;38.50;100929.73;1693193;82;22636;-39
2021/09/09 09:30:52;;;;;;;10.65;6.15;;;;;;;23.14;37.27;100922.87;1652721;82;21746;-37
2021/09/09 09:33:56;;;;;;;9.65;5.22;;;;;;;23.16;37.57;100912.52;1662810;83;21662;-37
2021/09/09 09:36:46;;;;;;;9.60;6.25;;;;;;;23.22;38.51;100914.05;1640996;83;21214;-39
2021/09/09 09:39:20;;;;;;;10.40;6.12;;;;;;;23.22;37.83;100914.92;1595849;86;21062;-37
2021/09/09 09:42:00;;;;;;;9.25;6.70;;;;;;;23.21;37.22;100915.86;1619134;87;21112;-40
2021/09/09 09:51:53;;;;;;;13.83;6.50;;;;;;;23.26;36.78;100905.86;1695886;81;21087;-40
2021/09/09 09:59:03;;;;;;;8.50;5.40;;;;;;;23.37;37.13;100901.39;1638391;85;21100;-38
2021/09/09 10:01:44;;;;;;;12.15;6.33;;;;;;;23.43;36.92;100893.12;1617884;85;21650;-37
2021/09/09 10:08:35;;;;;;;11.73;5.83;;;;;;;23.50;36.56;100888.37;1652416;84;21099;-37
2021/09/09 10:11:54;;;;;;;14.47;6.60;;;;;;;23.56;36.52;100882.75;1665103;84;21577;31
2021/09/09 10:28:41;;;;;;;10.70;6.75;;;;;;;24.72;33.40;100861.76;1711568;80;21103;-38
2021/09/09 10:41:19;;;;;;;9.13;5.83;;;;;;;27.23;30.02;100848.86;1669752;81;21144;31
2021/09/09 11:02:22;;;;;;;9.43;5.72;;;;;;;29.62;26.26;100828.20;1611893;86;21602;-39
2021/09/09 11:14:58;;;;;;;14.38;6.03;;;;;;;29.01;26.30;100812.77;1602721;87;21104;-40
2021/09/09 11:17:39;;;;;;;12.95;6.58;;;;;;;28.67;27.08;100810.98;1516650;91;21161;-38
2021/09/09 11:23:18;;;;;;;11.75;6.05;;;;;;;28.14;27.71;100802.41;1555232;89;21264;-40
2021/09/09 11:25:50;;;;;;;11.95;5.75;;;;;;;27.94;27.91;100802.34;1525977;92;21140;-39
2021/09/09 11:28:20;;;;;;;;;;;;;;;27.76;28.84;100799.02;1532359;91;21114;-40
2021/09/09 11:31:21;;;;;;;11.57;6.22;;;;;;;27.46;28.80;100795.06;1539801;91;20203;-40
2021/09/09 11:33:59;;;;;;;10.95;6.37;;;;;;;27.01;28.72;100793.73;1557285;90;21206;-41
2021/09/09 11:36:59;;;;;;;13.75;6.37;;;;;;;26.65;29.80;100790.09;1542287;90;21140;31
2021/09/09 11:40:02;;;;;;;9.43;6.00;;;;;;;26.49;29.58;100787.44;1518675;91;21160;-41
2021/09/09 11:42:53;;;;;;;10.28;6.00;;;;;;;26.36;30.08;100785.06;1551200;90;21568;-40
2021/09/09 11:45:27;;;;;;;9.88;6.50;;;;;;;26.23;30.60;100784.91;1561755;89;21085;-39
2021/09/09 11:48:13;;;;;;;10.32;6.37;;;;;;;25.94;31.04;100781.20;1632232;85;21134;-41
2021/09/09 11:50:48;;;;;;;8.23;6.90;;;;;;;25.69;32.71;100780.34;1615827;85;21111;-39
2021/09/09 12:17:32;;;;;;;8.65;6.30;;;;;;;25.59;31.76;100754.14;1700987;80;21148;-37
2021/09/09 12:20:28;;;;;;;8.73;6.80;;;;;;;25.47;32.62;100750.32;1708473;79;21594;-37
2021/09/09 12:27:39;;;;;;;11.97;6.85;;;;;;;25.29;33.21;100737.94;1740541;79;21565;-38
2021/09/09 12:30:13;;;;;;;11.90;6.47;;;;;;;25.21;33.31;100735.66;1749999;79;21575;-38
2021/09/09 12:32:49;;;;;;;11.08;6.37;;;;;;;25.16;32.45;100737.27;1697127;82;21117;-41
2021/09/09 12:35:25;;;;;;;9.15;6.58;;;;;;;25.21;32.56;100727.14;1708984;81;21246;-38
2021/09/09 12:38:11;;;;;;;11.03;6.67;;;;;;;25.29;32.37;100724.08;1689841;80;21247;-37
2021/09/09 12:40:52;;;;;;;10.65;6.83;;;;;;;25.37;32.56;100723.64;1617840;85;21887;-40
2021/09/09 12:43:40;;;;;;;11.83;7.10;;;;;;;25.38;33.02;100722.69;1588944;88;22045;-40
2021/09/09 12:46:45;;;;;;;10.72;6.62;;;;;;;25.28;32.70;100721.45;1569519;88;21052;-40
2021/09/09 12:49:23;;;;;;;10.55;6.60;;;;;;;25.13;32.84;100724.03;1568543;90;21108;-39
2021/09/09 12:52:11;;;;;;;9.33;6.30;;;;;;;25.05;32.79;100723.59;1550597;91;21179;-37
2021/09/09 12:54:46;;;;;;;13.00;6.97;;;;;;;25.16;32.80;100714.51;1480161;93;21156;-39
2021/09/09 12:59:54;;;;;;;8.88;6.03;;;;;;;25.50;32.99;100711.78;1545265;91;21101;-38
2021/09/09 13:02:22;;;;;;;11.03;6.97;;;;;;;25.55;32.72;100707.03;1561244;91;21088;-40
2021/09/09 13:04:51;;;;;;;18.45;7.25;;;;;;;25.59;32.63;100704.11;1545346;91;21174;-40
2021/09/09 13:07:21;;;;;;;8.48;6.17;;;;;;;25.67;32.01;100709.89;1556050;91;21176;-38
2021/09/09 13:10:03;;;;;;;11.15;6.47;;;;;;;25.74;31.74;100701.05;1519020;92;21086;-38
2021/09/09 13:16:02;;;;;;;11.83;7.00;;;;;;;25.86;31.44;100696.81;1539910;90;21084;-41
2021/09/09 13:22:01;;;;;;;11.15;6.62;;;;;;;25.77;31.40;100691.52;1655183;80;21967;-37
2021/09/09 13:24:36;;;;;;;10.25;6.37;;;;;;;25.65;32.22;100688.16;1690251;81;21088;-40
2021/09/09 13:27:04;;;;;;;15.15;7.15;;;;;;;25.70;32.34;100692.80;1676672;82;21077;-37
2021/09/09 13:32:13;;;;;;;11.75;6.83;;;;;;;25.93;31.98;100688.83;1687946;83;21584;-40
2021/09/09 13:35:27;;;;;;;10.72;6.60;;;;;;;26.06;32.08;100691.66;1738504;81;21070;-38
2021/09/09 13:41:29;;;;;;;8.18;6.37;;;;;;;25.92;31.94;100686.63;1734210;81;20168;-41
2021/09/09 13:46:30;;;;;;;9.60;6.17;;;;;;;25.88;31.68;100677.51;1736530;81;21010;-38
2021/09/09 13:52:05;;;;;;;14.55;7.20;;;;;;;25.80;31.43;100676.59;1707725;82;21151;-38
2021/09/09 13:54:33;;;;;;;8.98;6.35;;;;;;;25.81;31.17;100667.63;1683014;84;21036;-38
2021/09/09 13:57:02;;;;;;;7.00;5.62;;;;;;;25.91;31.36;100675.50;1623391;83;21106;-40
2021/09/09 13:59:39;;;;;;;9.10;6.58;;;;;;;26.04;31.44;100676.16;1703791;82;21088;-41
2021/09/09 14:02:20;;;;;;;13.05;6.65;;;;;;;26.36;30.95;100674.23;1716027;81;21057;-37
2021/09/09 14:05:15;;;;;;;15.45;6.72;;;;;;;26.56;30.95;100673.95;1718392;81;21182;-41
2021/09/09 14:07:52;;;;;;;9.88;7.30;;;;;;;26.64;31.07;100662.27;1699918;82;21121;-38
2021/09/09 14:10:28;;;;;;;9.03;6.62;;;;;;;26.67;30.59;100664.77;1640908;84;21199;-40
2021/09/09 14:12:58;;;;;;;9.30;6.42;;;;;;;26.62;30.06;100667.35;1715467;81;21615;-41
2021/09/09 14:15:26;;;;;;;8.45;6.35;;;;;;;26.58;30.41;100659.95;1658133;83;21083;-41
2021/09/09 14:17:54;;;;;;;10.60;6.47;;;;;;;26.75;30.36;100660.27;1719317;81;21112;-41
2021/09/09 14:20:25;;;;;;;12.53;6.80;;;;;;;27.18;30.04;100652.23;1710151;81;21080;-40
2021/09/09 14:22:54;;;;;;;9.40;6.87;;;;;;;27.74;29.47;100647.74;1624791;84;21073;-41
2021/09/09 14:25:26;;;;;;;10.93;6.72;;;;;;;28.21;28.85;100645.90;1630091;86;21154;-41
2021/09/09 14:27:57;;;;;;;9.67;6.37;;;;;;;28.69;27.16;100642.64;1656206;83;21073;-41
2021/09/09 14:30:25;;;;;;;10.10;6.47;;;;;;;28.99;26.90;100644.56;1645762;83;21506;-41
2021/09/09 14:32:53;;;;;;;16.27;6.90;;;;;;;29.19;26.42;100648.51;1640991;85;21087;-41
2021/09/09 14:35:31;;;;;;;10.78;6.17;;;;;;;29.34;26.41;100642.02;1668857;83;21170;-41
2021/09/09 14:38:01;;;;;;;11.05;6.60;;;;;;;29.31;26.71;100642.72;1683259;83;21090;-41
2021/09/09 14:40:44;;;;;;;10.55;6.90;;;;;;;28.94;27.02;100645.86;1710190;82;21038;-38
2021/09/09 14:43:12;;;;;;;415.55;216.42;;;;;;;28.61;26.93;100644.53;1682365;83;21080;-38
2021/09/09 14:45:40;;;;;;;214.17;113.17;;;;;;;28.44;27.65;100642.16;1654703;83;21488;-42
2021/09/09 14:48:09;;;;;;;260.50;149.07;;;;;;;28.54;27.67;100644.10;1678939;83;21586;-40
2021/09/09 14:50:37;;;;;;;287.52;172.45;;;;;;;28.36;27.90;100642.69;1678590;83;21514;-41
2021/09/09 14:53:05;;;;;;;278.48;165.37;;;;;;;28.06;28.32;100643.78;1695924;83;21153;-38
2021/09/09 14:55:32;;;;;;;98.47;59.75;;;;;;;27.76;28.62;100634.56;1697191;83;22570;-40
2021/09/09 14:58:03;;;;;;;32.48;21.15;;;;;;;27.45;29.08;100633.02;1655265;84;21599;-40
2021/09/09 15:01:08;;;;;;;19.65;9.00;;;;;;;27.23;29.72;100634.87;1682755;83;21127;-40
2021/09/09 15:06:15;;;;;;;11.35;6.65;;;;;;;26.47;30.69;100640.48;1646823;84;21100;-38
2021/09/09 15:08:44;;;;;;;15.38;7.17;;;;;;;26.14;31.36;100639.78;1628665;85;21076;-40
2021/09/09 15:11:14;;;;;;;15.98;6.87;;;;;;;25.86;31.76;100636.06;1614194;87;21511;-40
2021/09/09 15:17:29;;;;;;;14.00;7.20;;;;;;;25.66;31.95;100633.15;1667871;84;21197;-38
2021/09/09 15:20:00;;;;;;;13.70;7.03;;;;;;;25.71;32.65;100634.23;1671247;83;22187;-41
2021/09/09 15:22:38;;;;;;;12.20;6.62;;;;;;;25.61;32.69;100629.86;1683946;83;21713;-39
2021/09/09 15:28:11;;;;;;;10.53;7.15;;;;;;;25.23;33.53;100618.66;1648530;84;21582;-40
2021/09/09 15:30:40;;;;;;;12.23;6.95;;;;;;;25.12;33.80;100616.57;1703596;83;21496;-38
2021/09/09 15:33:12;;;;;;;14.18;7.12;;;;;;;24.97;34.41;100614.69;1673711;83;21165;-38
2021/09/09 15:39:17;;;;;;;13.88;6.72;;;;;;;24.90;34.84;100608.81;1672704;84;21059;-38
2021/09/09 15:41:46;;;;;;;12.10;6.75;;;;;;;25.09;34.61;100607.84;1679170;84;21218;-38
2021/09/09 15:44:14;;;;;;;12.18;6.47;;;;;;;25.26;34.30;100605.08;1623323;85;21110;-41
2021/09/09 15:46:42;;;;;;;10.70;6.95;;;;;;;25.19;34.39;100596.53;1629654;84;21568;-39
2021/09/09 15:49:11;;;;;;;13.68;7.15;;;;;;;25.08;34.57;100594.93;1675161;84;21016;-41
2021/09/09 15:51:46;;;;;;;11.45;6.53;;;;;;;25.07;34.62;100605.25;1629518;86;21183;-38
2021/09/09 15:55:23;;;;;;;13.85;7.65;;;;;;;25.08;34.61;100598.08;1599188;86;21609;-40
2021/09/09 15:57:53;;;;;;;17.40;6.67;;;;;;;25.08;34.70;100599.42;1654435;85;21131;-38
2021/09/09 16:00:30;;;;;;;13.22;7.30;;;;;;;24.95;35.06;100598.73;1607070;86;21133;-40
